Weather History for KOXI - March, 2013

Change the Weather History Date:

Sunday, March 10, 2013

  Actual Average (KVPZ) Record (KVPZ)
Temperature  
Mean Temperature 49 °F 36 °F  
Max Temperature 61 °F 44 °F 67 °F (1902)
Min Temperature 37 °F 27 °F 2 °F (1996)
Degree Days  
Heating Degree Days 16 29  
Month to date heating degree days 311  
Since 1 July heating degree days 5043  
Cooling Degree Days 0 0  
Month to date cooling degree days 0  
Year to date cooling degree days 0  
Moisture  
Dew Point 41 °F    
Average Humidity 73    
Maximum Humidity 97    
Minimum Humidity 50    
Precipitation  
Precipitation 0.00 in 0.07 in 0.78 in (1943)
Month to date precipitation 0.75  
Year to date precipitation 3.92  
Sea Level Pressure  
Sea Level Pressure 29.79 in    
Wind  
Wind Speed 11 mph (SSE)    
Max Wind Speed 22 mph    
Max Gust Speed 28 mph    
Visibility 9 miles    
Events      
T = Trace of Precipitation, MM = Missing Value Source: NWS Daily Summary

Daily Weather History Graph

Daily Weather History Graph

Search for Another Location

Airport or City:

Trip Planner

Search our weather history database for the weather conditions in past years. The results will help you decide how hot, cold, wet, or windy it might be!

Date:

Astronomy

Mar. 10, 2013 Rise Set
Actual Time 7:06 AM CDT 6:48 PM CDT
Civil Twilight 6:38 AM CDT 7:15 PM CDT
Nautical Twilight 6:06 AM CDT 7:47 PM CDT
Astronomical Twilight 5:34 AM CDT 8:19 PM CDT
Moon 6:06 AM CDT (3/10) 5:55 PM CDT (3/10)
Length of Visible Light 12h 36m
Length of Day
11h 41m
Waning Crescent, 2% of the Moon is Illuminated
Mar 10
Waning Crescent
Mar 11
New
Mar 19
First Quarter
Mar 27
Full
Apr 2
Last Quarter

Hourly Weather History & Observations

Time (CDT) Temp. Windchill Dew Point Humidity Pressure Visibility Wind Dir Wind Speed Gust Speed Precip Events Conditions
12:15 AM 41.0 °F 33.9 °F 32.4 °F 71% 29.88 in 10.0 mi SSE 12.7 mph - N/A   Mostly Cloudy
12:35 AM 41.4 °F 34.7 °F 32.4 °F 70% 29.88 in 10.0 mi SSE 11.5 mph - N/A   Overcast
12:55 AM 41.9 °F 35.4 °F 32.4 °F 69% 29.88 in 10.0 mi SSE 11.5 mph - N/A   Overcast
1:15 AM 42.1 °F 35.2 °F 32.2 °F 68% 29.88 in 10.0 mi SSE 12.7 mph - N/A   Overcast
1:35 AM 42.3 °F 35.5 °F 32.2 °F 67% 29.87 in 10.0 mi SSE 12.7 mph - N/A   Overcast
1:55 AM 42.4 °F 36.1 °F 32.0 °F 67% 29.87 in 10.0 mi SSE 11.5 mph - N/A   Overcast
3:15 AM 42.3 °F 36.3 °F 32.0 °F 67% 29.85 in 10.0 mi SSE 10.4 mph - N/A   Overcast
3:35 AM 42.3 °F 35.9 °F 32.2 °F 67% 29.85 in 10.0 mi SSE 11.5 mph - N/A   Overcast
3:55 AM 41.7 °F 37.3 °F 32.9 °F 71% 29.85 in 10.0 mi SE 6.9 mph - N/A   Overcast
4:15 AM 41.4 °F 39.4 °F 33.3 °F 73% 29.86 in 10.0 mi SE 3.5 mph - N/A   Overcast
4:35 AM 43.0 °F - 33.6 °F 70% 29.87 in 10.0 mi Calm Calm - N/A   Overcast
4:55 AM 40.3 °F 36.3 °F 34.2 °F 79% 29.87 in 10.0 mi NNE 5.8 mph - N/A   Overcast
5:15 AM 39.2 °F 35.0 °F 35.6 °F 87% 29.87 in 10.0 mi East 5.8 mph - N/A   Overcast
5:35 AM 38.5 °F 34.1 °F 35.4 °F 89% 29.88 in 10.0 mi ESE 5.8 mph - N/A   Overcast
5:55 AM 37.6 °F 34.0 °F 36.9 °F 97% 29.88 in 5.0 mi ESE 4.6 mph - N/A   Overcast
6:15 AM 38.3 °F 33.9 °F 36.9 °F 95% 29.88 in 10.0 mi ESE 5.8 mph - N/A   Overcast
6:35 AM 38.7 °F 34.3 °F 36.1 °F 91% 29.87 in 10.0 mi SE 5.8 mph - N/A   Overcast
7:15 AM 39.0 °F 33.4 °F 35.8 °F 88% 29.87 in 10.0 mi SSE 8.1 mph - N/A   Mostly Cloudy
7:35 AM 39.7 °F 34.3 °F 35.8 °F 86% 29.86 in 10.0 mi SE 8.1 mph - N/A   Overcast
8:15 AM 41.5 °F 35.9 °F 36.0 °F 81% 29.85 in 10.0 mi SSE 9.2 mph - N/A   Scattered Clouds
8:35 AM 42.3 °F 36.8 °F 36.3 °F 79% 29.86 in 10.0 mi SSE 9.2 mph - N/A   Scattered Clouds
8:55 AM 42.8 °F 37.5 °F 36.5 °F 78% 29.84 in 10.0 mi SE 9.2 mph - N/A   Scattered Clouds
9:15 AM 42.6 °F 37.8 °F 36.7 °F 79% 29.85 in 10.0 mi SSE 8.1 mph - N/A   Mostly Cloudy
9:35 AM 43.2 °F 37.9 °F 37.0 °F 79% 29.85 in 10.0 mi SSE 9.2 mph - N/A   Mostly Cloudy
9:55 AM 44.2 °F 39.7 °F 37.4 °F 77% 29.85 in 10.0 mi South 8.1 mph - N/A   Mostly Cloudy
10:15 AM 45.5 °F 40.8 °F 37.9 °F 75% 29.85 in 10.0 mi SSE 9.2 mph - N/A   Mostly Cloudy
10:35 AM 46.8 °F - 38.5 °F 73% 29.84 in 10.0 mi South 10.4 mph - N/A   Mostly Cloudy
10:55 AM 48.6 °F - 39.4 °F 71% 29.84 in 10.0 mi South 12.7 mph - N/A   Scattered Clouds
11:15 AM 50.2 °F - 39.9 °F 68% 29.84 in 10.0 mi South 13.8 mph 19.6 mph N/A   Scattered Clouds
11:35 AM 50.7 °F - 40.5 °F 68% 29.83 in 10.0 mi South 16.1 mph 20.7 mph N/A   Mostly Cloudy
11:55 AM 52.2 °F - 41.4 °F 67% 29.82 in 10.0 mi South 16.1 mph - N/A   Overcast
12:15 PM 53.4 °F - 42.4 °F 66% 29.81 in 10.0 mi South 15.0 mph - N/A   Overcast
12:35 PM 54.5 °F - 43.2 °F 66% 29.81 in 10.0 mi South 12.7 mph 20.7 mph N/A   Overcast
12:55 PM 56.5 °F - 44.6 °F 64% 29.83 in 10.0 mi South 21.9 mph 27.6 mph N/A   Overcast
1:15 PM 57.2 °F - 45.5 °F 65% 29.82 in 10.0 mi South 17.3 mph 24.2 mph N/A   Mostly Cloudy
1:35 PM 57.9 °F - 45.9 °F 64% 29.80 in 10.0 mi South 17.3 mph 23.0 mph N/A   Scattered Clouds
1:55 PM 58.3 °F - 46.8 °F 66% 29.79 in 10.0 mi SSE 19.6 mph - N/A   Scattered Clouds
2:15 PM 58.6 °F - 47.1 °F 66% 29.77 in 10.0 mi SSE 13.8 mph 17.3 mph N/A   Scattered Clouds
2:35 PM 59.2 °F - 46.9 °F 64% 29.75 in 10.0 mi SSE 17.3 mph - N/A   Clear
3:15 PM 59.5 °F - 46.6 °F 62% 29.75 in 10.0 mi SSE 17.3 mph 23.0 mph N/A   Clear
3:35 PM 59.9 °F - 46.2 °F 61% 29.74 in 10.0 mi SSE 16.1 mph 23.0 mph N/A   Scattered Clouds
3:55 PM 60.6 °F - 46.6 °F 60% 29.75 in 10.0 mi SSE 16.1 mph - N/A   Mostly Cloudy
4:15 PM 61.0 °F - 46.2 °F 58% 29.74 in 10.0 mi SSE 17.3 mph - N/A   Mostly Cloudy
4:35 PM 60.8 °F - 45.1 °F 56% 29.71 in 10.0 mi SSE 20.7 mph - N/A   Mostly Cloudy
5:15 PM 59.9 °F - 41.4 °F 50% 29.70 in 10.0 mi SSE 12.7 mph - N/A   Scattered Clouds
5:35 PM 59.4 °F - 41.0 °F 51% 29.70 in 10.0 mi SSE 13.8 mph - N/A   Mostly Cloudy
5:55 PM 58.1 °F - 41.4 °F 54% 29.70 in 10.0 mi SE 10.4 mph - N/A   Overcast
6:15 PM 57.2 °F - 42.3 °F 57% 29.71 in 10.0 mi SSE 13.8 mph - N/A   Overcast
6:35 PM 55.9 °F - 42.6 °F 61% 29.72 in 7.0 mi SSE 15.0 mph - N/A   Overcast
6:55 PM 54.1 °F - 43.0 °F 66% 29.73 in 7.0 mi SSE 15.0 mph - N/A   Overcast
7:15 PM 52.9 °F - 43.3 °F 70% 29.73 in 10.0 mi SSE 11.5 mph - N/A   Overcast
7:35 PM 51.8 °F - 43.7 °F 74% 29.72 in 10.0 mi SSE 8.1 mph - N/A   Overcast
7:55 PM 50.7 °F - 45.0 °F 81% 29.71 in 10.0 mi SE 9.2 mph - N/A   Overcast
8:15 PM 50.4 °F - 45.5 °F 83% 29.69 in 10.0 mi SE 16.1 mph - N/A   Scattered Clouds
8:35 PM 51.8 °F - 44.2 °F 75% 29.70 in 10.0 mi SSE 15.0 mph 18.4 mph N/A   Mostly Cloudy
9:15 PM 54.3 °F - 44.1 °F 68% 29.70 in 10.0 mi South 13.8 mph - N/A   Overcast
9:35 PM 54.3 °F - 44.1 °F 68% 29.69 in 10.0 mi South 12.7 mph - N/A   Overcast
10:15 PM 53.6 °F - 44.6 °F 72% 29.70 in 10.0 mi South 11.5 mph - N/A   Overcast
10:35 PM 52.7 °F - 45.3 °F 76% 29.70 in 10.0 mi South 16.1 mph 19.6 mph N/A   Overcast
10:55 PM 52.0 °F - 46.8 °F 82% 29.70 in 7.0 mi SSW 13.8 mph - N/A   Overcast
11:15 PM 51.3 °F - 47.5 °F 87% 29.70 in 10.0 mi South 13.8 mph - N/A   Overcast
11:35 PM 51.1 °F - 47.7 °F 88% 29.69 in 5.0 mi South 15.0 mph 25.3 mph N/A   Overcast
11:55 PM 50.2 °F - 48.2 °F 93% 29.69 in 7.0 mi SSW 10.4 mph - N/A   Overcast
12:15 AM 49.6 °F - 48.2 °F 95% 29.68 in 4.0 mi South 6.9 mph - N/A   Overcast
12:35 AM 49.3 °F - 48.2 °F 96% 29.68 in 4.0 mi South 11.5 mph - N/A   Overcast
12:55 AM 49.3 °F - 48.4 °F 97% 29.67 in 4.0 mi South 11.5 mph - N/A   Overcast